Dades meteomassalio
Diari Summary for Gener 31, 2017 Units:  Metric    English   Both
« Previous Day
Next Day »
Diari Semanal Mensual Anual Personalitzat
  Maxima: Minima: Mijana:
Temperatura: 17.7 °C 3.1 °C 9.3 °C
Rosada: 10.8 °C 2.2 °C 6.5 °C
Humitat: 94 % 61 % 84 %
Velocitat del vent: 18.5 km/h 0.0 km/h 1.4 km/h
Racha vent: 18.5 km/h - -
Vent:- - ENE
Pressio: 1019.9 hPa 1015.8 hPa -
Pluja: 0.3 mm    
Historical Graphs
 
 
Tabular Data for Gener 31, 2017
Time Temperature Dew Point Pressure Wind Wind Speed Wind Gust Humidity Rainfall Rate (Hourly) solar Conditions
00:04 7.1 °C 5.9 °C 1019.9 hPa Calm     92 % 0.0 mm 0.0 W/m2 CLR
00:09 7.1 °C 5.8 °C 1019.9 hPa Calm     92 % 0.0 mm 0.0 W/m2 CLR
00:14 6.9 °C 5.7 °C 1019.9 hPa Calm     92 % 0.0 mm 0.0 W/m2 CLR
00:19 6.9 °C 5.7 °C 1019.9 hPa Calm     92 % 0.0 mm 0.0 W/m2 CLR
00:24 7.0 °C 5.8 °C 1019.9 hPa Calm     92 % 0.0 mm 0.0 W/m2 CLR
00:29 7.0 °C 5.8 °C 1019.9 hPa Calm     92 % 0.0 mm 0.0 W/m2 CLR
00:34 6.8 °C 5.6 °C 1019.9 hPa Calm     92 % 0.0 mm 0.0 W/m2 CLR
00:39 6.8 °C 5.6 °C 1019.9 hPa Calm     92 % 0.0 mm 0.0 W/m2 CLR
00:44 6.8 °C 5.6 °C 1019.9 hPa Calm     92 % 0.0 mm 0.0 W/m2 CLR
00:49 6.7 °C 5.4 °C 1019.9 hPa Calm     92 % 0.0 mm 0.0 W/m2 CLR
00:54 6.8 °C 5.8 °C 1019.9 hPa Calm     93 % 0.0 mm 0.0 W/m2 CLR
00:59 6.9 °C 5.8 °C 1019.9 hPa Calm     93 % 0.0 mm 0.0 W/m2 CLR
01:04 6.9 °C 5.8 °C 1019.9 hPa Calm     93 % 0.0 mm 0.0 W/m2 CLR
01:09 6.7 °C 5.5 °C 1019.5 hPa Calm     92 % 0.0 mm 0.0 W/m2 CLR
01:14 6.5 °C 5.3 °C 1019.5 hPa Calm     92 % 0.0 mm 0.0 W/m2 CLR
01:19 6.3 °C 5.1 °C 1019.5 hPa Calm     92 % 0.0 mm 0.0 W/m2 CLR
01:24 6.3 °C 5.1 °C 1019.5 hPa Calm     92 % 0.0 mm 0.0 W/m2 CLR
01:29 6.2 °C 5.0 °C 1019.5 hPa Calm     92 % 0.0 mm 0.0 W/m2 CLR
01:34 6.2 °C 5.1 °C 1019.5 hPa Calm     93 % 0.0 mm 0.0 W/m2 CLR
01:39 6.1 °C 5.1 °C 1019.5 hPa Calm     93 % 0.0 mm 0.0 W/m2 CLR
01:44 5.9 °C 4.7 °C 1019.5 hPa Calm     92 % 0.0 mm 0.0 W/m2 CLR
01:49 5.8 °C 4.7 °C 1019.5 hPa Calm     93 % 0.0 mm 0.0 W/m2 CLR
01:54 5.7 °C 4.7 °C 1019.5 hPa Calm     93 % 0.0 mm 0.0 W/m2 CLR
01:59 5.7 °C 4.7 °C 1019.5 hPa Calm     93 % 0.0 mm 0.0 W/m2 CLR
02:04 5.8 °C 4.7 °C 1019.5 hPa Calm     93 % 0.0 mm 0.0 W/m2 CLR
02:09 5.8 °C 4.7 °C 1019.5 hPa Calm     93 % 0.0 mm 0.0 W/m2 CLR
02:14 5.7 °C 4.6 °C 1019.5 hPa Calm     93 % 0.0 mm 0.0 W/m2 CLR
02:19 5.6 °C 4.6 °C 1019.5 hPa Calm     93 % 0.0 mm 0.0 W/m2 CLR
02:24 5.6 °C 4.5 °C 1019.5 hPa Calm     93 % 0.0 mm 0.0 W/m2 CLR
02:29 5.4 °C 4.4 °C 1019.5 hPa Calm     93 % 0.0 mm 0.0 W/m2 CLR
02:34 5.4 °C 4.3 °C 1019.5 hPa Calm     93 % 0.0 mm 0.0 W/m2 CLR
02:39 5.3 °C 4.3 °C 1019.5 hPa Calm     93 % 0.0 mm 0.0 W/m2 CLR
02:44 5.4 °C 4.3 °C 1019.5 hPa Calm     93 % 0.0 mm 0.0 W/m2 CLR
02:49 5.5 °C 4.4 °C 1019.5 hPa Calm     93 % 0.0 mm 0.0 W/m2 CLR
02:54 5.5 °C 4.4 °C 1019.5 hPa Calm     93 % 0.0 mm 0.0 W/m2 CLR
02:59 5.4 °C 4.3 °C 1019.5 hPa Calm     93 % 0.0 mm 0.0 W/m2 CLR
03:04 5.4 °C 4.3 °C 1019.5 hPa Calm     93 % 0.0 mm 0.0 W/m2 CLR
03:09 5.4 °C 4.3 °C 1019.5 hPa Calm     93 % 0.0 mm 0.0 W/m2 CLR
03:14 5.2 °C 4.2 °C 1019.5 hPa Calm     93 % 0.0 mm 0.0 W/m2 CLR
03:19 5.1 °C 4.1 °C 1019.5 hPa Calm     93 % 0.0 mm 0.0 W/m2 CLR
03:24 5.0 °C 3.9 °C 1019.5 hPa Calm     93 % 0.0 mm 0.0 W/m2 CLR
03:29 4.9 °C 3.9 °C 1019.5 hPa Calm     93 % 0.0 mm 0.0 W/m2 CLR
03:34 5.0 °C 3.9 °C 1019.5 hPa Calm     93 % 0.0 mm 0.0 W/m2 CLR
03:39 5.1 °C 4.1 °C 1019.5 hPa Calm     93 % 0.0 mm 0.0 W/m2 CLR
03:44 5.1 °C 4.1 °C 1019.5 hPa Calm     93 % 0.0 mm 0.0 W/m2 CLR
03:49 5.0 °C 3.9 °C 1019.5 hPa Calm     93 % 0.0 mm 0.0 W/m2 CLR
03:54 4.9 °C 3.8 °C 1019.5 hPa Calm     93 % 0.0 mm 0.0 W/m2 CLR
03:59 4.8 °C 3.8 °C 1019.2 hPa Calm     93 % 0.0 mm 0.0 W/m2 CLR
04:04 4.8 °C 3.8 °C 1019.2 hPa Calm     93 % 0.0 mm 0.0 W/m2 CLR
04:09 4.8 °C 3.8 °C 1019.2 hPa Calm     93 % 0.0 mm 0.0 W/m2 CLR
04:14 4.8 °C 3.8 °C 1019.2 hPa Calm     93 % 0.0 mm 0.0 W/m2 CLR
04:19 4.7 °C 3.6 °C 1019.2 hPa Calm     93 % 0.0 mm 0.0 W/m2 CLR
04:24 4.5 °C 3.4 °C 1019.2 hPa Calm     93 % 0.0 mm 0.0 W/m2 CLR
04:29 4.4 °C 3.4 °C 1019.2 hPa Calm     93 % 0.0 mm 0.0 W/m2 CLR
04:34 4.4 °C 3.4 °C 1019.2 hPa Calm     93 % 0.0 mm 0.0 W/m2 CLR
04:39 4.4 °C 3.4 °C 1019.2 hPa Calm     93 % 0.0 mm 0.0 W/m2 CLR
04:44 4.6 °C 3.5 °C 1019.2 hPa Calm     93 % 0.0 mm 0.0 W/m2 CLR
04:49 4.4 °C 3.4 °C 1019.2 hPa Calm     93 % 0.0 mm 0.0 W/m2 CLR
04:54 4.3 °C 3.3 °C 1019.2 hPa Calm     93 % 0.0 mm 0.0 W/m2 CLR
04:59 4.3 °C 3.2 °C 1019.2 hPa Calm     93 % 0.0 mm 0.0 W/m2 CLR
05:04 4.3 °C 3.4 °C 1019.2 hPa Calm     94 % 0.0 mm 0.0 W/m2 CLR
05:09 4.3 °C 3.4 °C 1019.2 hPa Calm     94 % 0.0 mm 0.0 W/m2 CLR
05:14 4.2 °C 3.2 °C 1019.2 hPa Calm     93 % 0.0 mm 0.0 W/m2 CLR
05:19 4.2 °C 3.1 °C 1019.2 hPa Calm     93 % 0.0 mm 0.0 W/m2 CLR
05:24 4.3 °C 3.4 °C 1019.2 hPa Calm     94 % 0.0 mm 0.0 W/m2 CLR
05:29 4.2 °C 3.2 °C 1019.2 hPa Calm     93 % 0.0 mm 0.0 W/m2 CLR
05:34 4.2 °C 3.1 °C 1019.2 hPa Calm     93 % 0.0 mm 0.0 W/m2 CLR
05:39 4.1 °C 3.1 °C 1019.2 hPa Calm     93 % 0.0 mm 0.0 W/m2 CLR
05:44 4.1 °C 3.0 °C 1019.2 hPa Calm     93 % 0.0 mm 0.0 W/m2 CLR
05:50 4.1 °C 3.0 °C 1019.2 hPa Calm     93 % 0.0 mm 0.0 W/m2 CLR
05:55 3.9 °C 2.8 °C 1019.2 hPa Calm     93 % 0.0 mm 0.0 W/m2 CLR
06:00 3.8 °C 2.7 °C 1019.2 hPa Calm     93 % 0.0 mm 0.0 W/m2 CLR
06:05 3.9 °C 3.1 °C 1019.5 hPa Calm     94 % 0.0 mm 0.0 W/m2 CLR
06:10 4.1 °C 3.2 °C 1019.2 hPa Calm     94 % 0.0 mm 0.0 W/m2 CLR
06:15 4.4 °C 3.5 °C 1019.2 hPa Calm     94 % 0.0 mm 0.0 W/m2 CLR
06:20 4.3 °C 3.4 °C 1019.2 hPa Calm     94 % 0.0 mm 0.0 W/m2 CLR
06:25 3.9 °C 2.9 °C 1019.2 hPa Calm     93 % 0.0 mm 0.0 W/m2 CLR
06:30 3.8 °C 2.7 °C 1019.2 hPa Calm     93 % 0.0 mm 0.0 W/m2 CLR
06:35 3.7 °C 2.7 °C 1019.2 hPa Calm     93 % 0.0 mm 0.0 W/m2 CLR
06:40 3.7 °C 2.8 °C 1019.2 hPa Calm     94 % 0.0 mm 0.0 W/m2 CLR
06:45 3.8 °C 2.9 °C 1019.5 hPa Calm     94 % 0.0 mm 0.0 W/m2 CLR
06:50 3.9 °C 3.0 °C 1019.5 hPa Calm     94 % 0.0 mm 0.0 W/m2 CLR
06:55 3.9 °C 3.0 °C 1019.2 hPa Calm     94 % 0.0 mm 0.0 W/m2 CLR
07:00 4.0 °C 3.1 °C 1019.2 hPa Calm     94 % 0.0 mm 0.0 W/m2 CLR
07:05 4.1 °C 3.2 °C 1019.2 hPa Calm     94 % 0.0 mm 0.0 W/m2 CLR
07:10 4.1 °C 3.2 °C 1019.5 hPa Calm     94 % 0.0 mm 0.0 W/m2 CLR
07:15 3.9 °C 3.0 °C 1019.5 hPa Calm     94 % 0.0 mm 0.0 W/m2 CLR
07:20 3.8 °C 2.7 °C 1019.5 hPa Calm     93 % 0.0 mm 0.0 W/m2 CLR
07:25 3.6 °C 2.6 °C 1019.5 hPa Calm     93 % 0.0 mm 0.0 W/m2 CLR
07:30 3.4 °C 2.4 °C 1019.5 hPa Calm     93 % 0.0 mm 0.0 W/m2 CLR
07:35 3.3 °C 2.4 °C 1019.5 hPa Calm     94 % 0.0 mm 0.0 W/m2 CLR
07:40 3.3 °C 2.4 °C 1019.5 hPa Calm     94 % 0.0 mm 0.0 W/m2 CLR
07:45 3.3 °C 2.4 °C 1019.5 hPa Calm     94 % 0.0 mm 0.0 W/m2 CLR
07:50 3.3 °C 2.4 °C 1019.5 hPa Calm     94 % 0.0 mm 0.0 W/m2 CLR
07:55 3.4 °C 2.5 °C 1019.5 hPa Calm     94 % 0.0 mm 0.0 W/m2 CLR
08:00 3.3 °C 2.4 °C 1019.5 hPa Calm     94 % 0.0 mm 0.0 W/m2 CLR
08:05 3.2 °C 2.3 °C 1019.5 hPa Calm     94 % 0.0 mm 0.0 W/m2 OVC
08:10 3.1 °C 2.2 °C 1019.5 hPa Calm     94 % 0.0 mm 0.0 W/m2 OVC
08:15 3.2 °C 2.3 °C 1019.5 hPa Calm     94 % 0.3 mm 5.0 W/m2 RA
08:20 3.3 °C 2.4 °C 1019.5 hPa Calm     94 % 0.3 mm 7.0 W/m2 BKN
08:25 3.3 °C 2.4 °C 1019.5 hPa Calm     94 % 0.3 mm 11.0 W/m2 BKN
08:30 3.4 °C 2.5 °C 1019.5 hPa Calm     94 % 0.3 mm 14.0 W/m2 BKN
08:35 3.4 °C 2.5 °C 1019.5 hPa Calm     94 % 0.3 mm 16.0 W/m2 BKN
08:40 3.4 °C 2.5 °C 1019.5 hPa Calm     94 % 0.3 mm 25.0 W/m2 BKN
08:45 3.5 °C 2.6 °C 1019.5 hPa Calm     94 % 0.3 mm 30.0 W/m2 BKN
08:50 3.6 °C 2.7 °C 1019.5 hPa Calm     94 % 0.3 mm 37.0 W/m2 BKN
08:55 3.8 °C 2.9 °C 1019.5 hPa Calm     94 % 0.3 mm 49.0 W/m2 SCT
09:00 4.1 °C 3.2 °C 1019.5 hPa Calm     94 % 0.3 mm 53.0 W/m2 SCT
09:05 4.3 °C 3.4 °C 1019.9 hPa Calm     94 % 0.3 mm 84.0 W/m2 FEW
09:10 4.6 °C 3.7 °C 1019.5 hPa Calm     94 % 0.3 mm 98.0 W/m2 CLR
09:15 4.8 °C 3.9 °C 1019.5 hPa Calm     94 % 0.0 mm 93.0 W/m2 CLR
09:20 5.1 °C 4.2 °C 1019.5 hPa Calm     94 % 0.0 mm 123.0 W/m2 CLR
09:25 5.6 °C 4.7 °C 1019.5 hPa Calm     94 % 0.0 mm 149.0 W/m2 CLR
09:30 5.9 °C 5.1 °C 1019.5 hPa Calm     94 % 0.0 mm 137.0 W/m2 CLR
09:35 6.2 °C 5.3 °C 1019.5 hPa Calm     94 % 0.0 mm 135.0 W/m2 CLR
09:40 6.5 °C 5.6 °C 1019.5 hPa Calm     94 % 0.0 mm 179.0 W/m2 CLR
09:45 6.7 °C 5.7 °C 1019.5 hPa Calm     93 % 0.0 mm 135.0 W/m2 CLR
09:50 6.9 °C 5.9 °C 1019.5 hPa Calm     93 % 0.0 mm 134.0 W/m2 CLR
09:55 7.1 °C 6.0 °C 1019.5 hPa Calm     93 % 0.0 mm 204.0 W/m2 CLR
10:00 7.3 °C 6.2 °C 1019.5 hPa Calm     93 % 0.0 mm 211.0 W/m2 CLR
10:05 7.5 °C 6.3 °C 1019.5 hPa Calm     92 % 0.0 mm 244.0 W/m2 CLR
10:10 7.8 °C 6.6 °C 1019.5 hPa Calm     92 % 0.0 mm 248.0 W/m2 CLR
10:15 8.2 °C 7.0 °C 1019.5 hPa Calm     92 % 0.0 mm 302.0 W/m2 CLR
10:20 8.6 °C 7.2 °C 1019.5 hPa Calm     91 % 0.0 mm 258.0 W/m2 CLR
10:25 9.1 °C 7.5 °C 1019.5 hPa Calm     90 % 0.0 mm 257.0 W/m2 CLR
10:30 9.3 °C 7.4 °C 1019.5 hPa Calm     88 % 0.0 mm 308.0 W/m2 CLR
10:35 9.5 °C 7.6 °C 1019.5 hPa Calm     88 % 0.0 mm 374.0 W/m2 CLR
10:40 9.8 °C 7.7 °C 1019.5 hPa Calm     87 % 0.0 mm 343.0 W/m2 CLR
10:45 10.1 °C 8.1 °C 1019.5 hPa Calm     87 % 0.0 mm 360.0 W/m2 CLR
10:50 10.5 °C 8.3 °C 1019.5 hPa Calm     86 % 0.0 mm 385.0 W/m2 CLR
10:55 10.8 °C 8.3 °C 1019.5 hPa Calm     85 % 0.0 mm 341.0 W/m2 CLR
11:00 11.1 °C 8.5 °C 1019.5 hPa Calm     84 % 0.0 mm 355.0 W/m2 CLR
11:05 11.3 °C 8.4 °C 1019.5 hPa Calm     82 % 0.0 mm 297.0 W/m2 CLR
11:10 11.6 °C 8.4 °C 1019.5 hPa Calm     81 % 0.0 mm 327.0 W/m2 CLR
11:15 11.8 °C 8.6 °C 1019.5 hPa Calm     81 % 0.0 mm 304.0 W/m2 CLR
11:20 12.0 °C 8.8 °C 1019.5 hPa Calm     81 % 0.0 mm 403.0 W/m2 CLR
11:25 12.3 °C 8.9 °C 1019.2 hPa Calm     80 % 0.0 mm 434.0 W/m2 CLR
11:30 12.4 °C 8.9 °C 1019.2 hPa Calm     79 % 0.0 mm 418.0 W/m2 CLR
11:35 12.8 °C 9.3 °C 1019.2 hPa Calm     79 % 0.0 mm 427.0 W/m2 CLR
11:40 13.2 °C 9.4 °C 1019.2 hPa Calm     78 % 0.0 mm 446.0 W/m2 CLR
11:45 13.5 °C 9.6 °C 1019.2 hPa Calm     77 % 0.0 mm 466.0 W/m2 CLR
11:50 13.8 °C 9.7 °C 1019.2 hPa Calm     76 % 0.0 mm 480.0 W/m2 CLR
11:55 14.1 °C 9.3 °C 1018.8 hPa Calm     73 % 0.0 mm 492.0 W/m2 CLR
12:01 14.3 °C 9.6 °C 1018.8 hPa Calm     73 % 0.0 mm 485.0 W/m2 CLR
12:06 14.5 °C 9.5 °C 1018.8 hPa Calm     72 % 0.0 mm 480.0 W/m2 CLR
12:11 14.7 °C 9.7 °C 1018.8 hPa Calm     72 % 0.0 mm 501.0 W/m2 CLR
12:16 14.9 °C 9.7 °C 1018.8 hPa Calm     71 % 0.0 mm 404.0 W/m2 CLR
12:21 15.1 °C 9.7 °C 1018.5 hPa Calm     70 % 0.0 mm 429.0 W/m2 CLR
12:26 15.2 °C 9.9 °C 1018.5 hPa Calm     71 % 0.0 mm 540.0 W/m2 CLR
12:31 15.3 °C 9.6 °C 1018.5 hPa Calm     69 % 0.0 mm 464.0 W/m2 CLR
12:36 15.4 °C 10.0 °C 1018.2 hPa Calm     70 % 0.0 mm 541.0 W/m2 CLR
12:41 15.6 °C 9.9 °C 1018.2 hPa Calm     69 % 0.0 mm 580.0 W/m2 CLR
12:46 15.7 °C 9.8 °C 1018.2 hPa Calm     68 % 0.0 mm 626.0 W/m2 CLR
12:51 16.0 °C 10.3 °C 1018.2 hPa NNE 5.6 km/h 5.6 km/h 69 % 0.0 mm 624.0 W/m2 CLR
12:56 16.3 °C 10.2 °C 1017.8 hPa Calm     67 % 0.0 mm 417.0 W/m2 CLR
13:01 16.4 °C 9.3 °C 1017.8 hPa Calm     63 % 0.0 mm 487.0 W/m2 CLR
13:06 16.4 °C 9.3 °C 1017.8 hPa East 5.6 km/h 5.6 km/h 63 % 0.0 mm 492.0 W/m2 CLR
13:11 16.4 °C 9.1 °C 1017.8 hPa East 11.1 km/h 11.1 km/h 62 % 0.0 mm 601.0 W/m2 CLR
13:16 16.7 °C 9.4 °C 1017.5 hPa ESE 8.0 km/h 8.0 km/h 62 % 0.0 mm 570.0 W/m2 CLR
13:21 16.9 °C 9.6 °C 1017.5 hPa East 5.6 km/h 5.6 km/h 62 % 0.0 mm 543.0 W/m2 CLR
13:26 16.9 °C 10.6 °C 1017.5 hPa ENE 1.9 km/h   66 % 0.0 mm 524.0 W/m2 CLR
13:31 17.0 °C 10.1 °C 1017.5 hPa ENE 5.6 km/h   64 % 0.0 mm 492.0 W/m2 CLR
13:36 17.0 °C 10.1 °C 1017.2 hPa NE 11.1 km/h 11.1 km/h 64 % 0.0 mm 450.0 W/m2 CLR
13:41 16.9 °C 10.1 °C 1017.2 hPa NE 7.4 km/h 7.4 km/h 64 % 0.0 mm 510.0 W/m2 CLR
13:46 17.1 °C 10.2 °C 1016.8 hPa ENE 3.7 km/h   64 % 0.0 mm 425.0 W/m2 CLR
13:51 17.1 °C 10.0 °C 1016.8 hPa Calm     63 % 0.0 mm 504.0 W/m2 CLR
13:56 17.1 °C 10.2 °C 1016.8 hPa ENE 5.6 km/h 5.6 km/h 64 % 0.0 mm 504.0 W/m2 CLR
14:01 17.2 °C 10.3 °C 1016.8 hPa NE 9.3 km/h 9.3 km/h 64 % 0.0 mm 482.0 W/m2 CLR
14:06 17.3 °C 10.4 °C 1016.5 hPa ENE 11.1 km/h 11.1 km/h 64 % 0.0 mm 487.0 W/m2 CLR
14:11 17.3 °C 10.4 °C 1016.5 hPa ENE 11.1 km/h 11.1 km/h 64 % 0.0 mm 478.0 W/m2 CLR
14:16 17.3 °C 10.2 °C 1016.5 hPa ENE 4.8 km/h 4.8 km/h 63 % 0.0 mm 475.0 W/m2 CLR
14:21 17.3 °C 10.4 °C 1016.5 hPa ENE 7.4 km/h 7.4 km/h 64 % 0.0 mm 468.0 W/m2 CLR
14:26 17.3 °C 10.4 °C 1016.1 hPa Calm     64 % 0.0 mm 459.0 W/m2 CLR
14:31 17.4 °C 10.8 °C 1016.1 hPa Calm   0.6 km/h 65 % 0.0 mm 466.0 W/m2 CLR
14:36 17.7 °C 10.8 °C 1016.1 hPa ENE 6.4 km/h 6.4 km/h 64 % 0.0 mm 457.0 W/m2 CLR
14:41 17.6 °C 10.2 °C 1016.1 hPa ENE 6.4 km/h 6.4 km/h 62 % 0.0 mm 464.0 W/m2 CLR
14:46 17.6 °C 10.2 °C 1016.1 hPa East 9.3 km/h 9.3 km/h 62 % 0.0 mm 425.0 W/m2 CLR
14:51 17.6 °C 10.5 °C 1015.8 hPa East 5.6 km/h 5.6 km/h 63 % 0.0 mm 438.0 W/m2 CLR
14:56 17.7 °C 10.1 °C 1015.8 hPa East 9.3 km/h   61 % 0.0 mm 439.0 W/m2 CLR
15:01 17.7 °C 10.3 °C 1015.8 hPa East 13.0 km/h 13.0 km/h 62 % 0.0 mm 424.0 W/m2 CLR
15:06 17.6 °C 10.2 °C 1015.8 hPa East 5.6 km/h 5.6 km/h 62 % 0.0 mm 420.0 W/m2 CLR
15:11 17.6 °C 10.5 °C 1015.8 hPa ENE 7.4 km/h 7.4 km/h 63 % 0.0 mm 415.0 W/m2 CLR
15:16 17.6 °C 10.5 °C 1015.8 hPa ENE 5.6 km/h 5.6 km/h 63 % 0.0 mm 399.0 W/m2 CLR
15:21 17.6 °C 10.2 °C 1015.8 hPa ENE 12.9 km/h 12.9 km/h 62 % 0.0 mm 367.0 W/m2 CLR
15:26 17.6 °C 10.7 °C 1015.8 hPa ENE 11.1 km/h 11.1 km/h 64 % 0.0 mm 392.0 W/m2 CLR
15:31 17.5 °C 10.4 °C 1015.8 hPa ENE 11.3 km/h 11.3 km/h 63 % 0.0 mm 378.0 W/m2 CLR
15:36 17.4 °C 10.3 °C 1015.8 hPa NE 16.7 km/h 16.7 km/h 63 % 0.0 mm 353.0 W/m2 CLR
15:41 17.3 °C 10.2 °C 1015.8 hPa NE 18.5 km/h 18.5 km/h 63 % 0.0 mm 343.0 W/m2 CLR
15:46 17.3 °C 10.2 °C 1015.8 hPa NE 5.6 km/h 5.6 km/h 63 % 0.0 mm 330.0 W/m2 CLR
15:51 17.4 °C 10.7 °C 1015.8 hPa NE 5.6 km/h 5.6 km/h 65 % 0.0 mm 330.0 W/m2 CLR
15:56 17.3 °C 10.7 °C 1015.8 hPa NE 13.0 km/h 13.0 km/h 65 % 0.0 mm 294.0 W/m2 CLR
16:01 17.2 °C 10.6 °C 1015.8 hPa NE 7.4 km/h 7.4 km/h 65 % 0.0 mm 304.0 W/m2 CLR
16:06 17.2 °C 10.6 °C 1015.8 hPa NE 7.4 km/h 7.4 km/h 65 % 0.0 mm 295.0 W/m2 CLR
16:11 17.2 °C 10.6 °C 1015.8 hPa NE 11.1 km/h 11.1 km/h 65 % 0.0 mm 274.0 W/m2 CLR
16:16 17.2 °C 10.6 °C 1015.8 hPa NE 7.4 km/h 7.4 km/h 65 % 0.0 mm 271.0 W/m2 CLR
16:21 17.2 °C 10.3 °C 1015.8 hPa NE 7.4 km/h 7.4 km/h 64 % 0.0 mm 250.0 W/m2 CLR
16:26 17.2 °C 10.6 °C 1016.1 hPa ENE 4.8 km/h 4.8 km/h 65 % 0.0 mm 234.0 W/m2 CLR
16:31 17.2 °C 10.6 °C 1015.8 hPa East 5.6 km/h 5.6 km/h 65 % 0.0 mm 207.0 W/m2 CLR
16:36 17.0 °C 10.4 °C 1016.1 hPa East 9.3 km/h 9.3 km/h 65 % 0.0 mm 216.0 W/m2 CLR
16:42 16.8 °C 10.4 °C 1016.1 hPa East 6.4 km/h 6.4 km/h 66 % 0.0 mm 193.0 W/m2 CLR
16:46 16.6 °C 10.2 °C 1016.1 hPa East 13.0 km/h 13.0 km/h 66 % 0.0 mm 169.0 W/m2 CLR
16:52 16.6 °C 10.4 °C 1016.1 hPa East 6.4 km/h 6.4 km/h 67 % 0.0 mm 149.0 W/m2 CLR
16:57 16.4 °C 10.2 °C 1016.1 hPa East 11.1 km/h 11.1 km/h 67 % 0.0 mm 141.0 W/m2 CLR
17:02 16.2 °C 10.3 °C 1016.1 hPa East 5.6 km/h 5.6 km/h 68 % 0.0 mm 118.0 W/m2 CLR
17:07 16.1 °C 10.2 °C 1016.1 hPa East 5.6 km/h 5.6 km/h 68 % 0.0 mm 86.0 W/m2 CLR
17:12 15.9 °C 10.1 °C 1016.1 hPa East 7.4 km/h   68 % 0.0 mm 76.0 W/m2 CLR
17:17 15.8 °C 9.9 °C 1016.1 hPa East 5.6 km/h   68 % 0.0 mm 70.0 W/m2 FEW
17:22 15.7 °C 10.1 °C 1016.1 hPa Calm   0.3 km/h 69 % 0.0 mm 63.0 W/m2 SCT
17:27 15.6 °C 9.9 °C 1016.5 hPa ENE 5.6 km/h 5.6 km/h 69 % 0.0 mm 49.0 W/m2 SCT
17:32 15.4 °C 10.0 °C 1016.5 hPa Calm     70 % 0.0 mm 46.0 W/m2 SCT
17:37 15.3 °C 9.8 °C 1016.5 hPa Calm     70 % 0.0 mm 39.0 W/m2 BKN
17:42 15.2 °C 9.9 °C 1016.5 hPa Calm     71 % 0.0 mm 35.0 W/m2 BKN
17:47 15.0 °C 9.8 °C 1016.5 hPa Calm     71 % 0.0 mm 28.0 W/m2 BKN
17:52 14.8 °C 9.8 °C 1016.5 hPa Calm     72 % 0.0 mm 25.0 W/m2 BKN
17:57 14.7 °C 9.7 °C 1016.5 hPa Calm     72 % 0.0 mm 19.0 W/m2 BKN
18:02 14.6 °C 9.6 °C 1016.8 hPa Calm     72 % 0.0 mm 12.0 W/m2 BKN
18:07 14.4 °C 9.6 °C 1016.8 hPa Calm     73 % 0.0 mm 9.0 W/m2 BKN
18:12 14.2 °C 9.4 °C 1016.8 hPa Calm     73 % 0.0 mm 0.0 W/m2 OVC
18:17 14.1 °C 9.5 °C 1016.8 hPa Calm     74 % 0.0 mm 0.0 W/m2 OVC
18:22 13.9 °C 9.4 °C 1016.8 hPa Calm     74 % 0.0 mm 0.0 W/m2 OVC
18:27 13.8 °C 9.4 °C 1016.8 hPa Calm     75 % 0.0 mm 0.0 W/m2 CLR
18:32 13.7 °C 9.5 °C 1016.8 hPa Calm     76 % 0.0 mm 0.0 W/m2 CLR
18:37 13.5 °C 9.3 °C 1017.2 hPa Calm     76 % 0.0 mm 0.0 W/m2 CLR
18:42 13.3 °C 9.3 °C 1017.2 hPa Calm     77 % 0.0 mm 0.0 W/m2 CLR
18:47 13.1 °C 9.1 °C 1017.2 hPa Calm     77 % 0.0 mm 0.0 W/m2 CLR
18:52 12.8 °C 9.1 °C 1017.2 hPa Calm     78 % 0.0 mm 0.0 W/m2 CLR
18:57 12.6 °C 9.0 °C 1017.2 hPa Calm     79 % 0.0 mm 0.0 W/m2 CLR
19:02 12.3 °C 9.0 °C 1017.2 hPa Calm     80 % 0.0 mm 0.0 W/m2 CLR
19:07 12.1 °C 8.7 °C 1017.2 hPa Calm     80 % 0.0 mm 0.0 W/m2 CLR
19:12 11.7 °C 8.4 °C 1017.2 hPa Calm     80 % 0.0 mm 0.0 W/m2 CLR
19:17 11.5 °C 8.6 °C 1017.2 hPa Calm     82 % 0.0 mm 0.0 W/m2 CLR
19:22 11.1 °C 8.3 °C 1017.2 hPa Calm     83 % 0.0 mm 0.0 W/m2 CLR
19:27 10.8 °C 8.2 °C 1017.2 hPa Calm     84 % 0.0 mm 0.0 W/m2 CLR
19:32 10.6 °C 8.2 °C 1017.2 hPa Calm     85 % 0.0 mm 0.0 W/m2 CLR
19:37 10.3 °C 7.9 °C 1017.5 hPa Calm     85 % 0.0 mm 0.0 W/m2 CLR
19:42 10.0 °C 7.6 °C 1017.5 hPa Calm     85 % 0.0 mm 0.0 W/m2 CLR
19:47 9.7 °C 7.5 °C 1017.5 hPa Calm     86 % 0.0 mm 0.0 W/m2 CLR
19:52 9.6 °C 7.5 °C 1017.5 hPa Calm     87 % 0.0 mm 0.0 W/m2 CLR
19:57 9.4 °C 7.4 °C 1017.5 hPa Calm     87 % 0.0 mm 0.0 W/m2 CLR
20:02 9.3 °C 7.4 °C 1017.5 hPa Calm     88 % 0.0 mm 0.0 W/m2 CLR
20:07 9.2 °C 7.3 °C 1017.5 hPa Calm     88 % 0.0 mm 0.0 W/m2 CLR
20:12 9.1 °C 7.2 °C 1017.5 hPa Calm     88 % 0.0 mm 0.0 W/m2 CLR
20:17 9.0 °C 7.1 °C 1017.5 hPa Calm     88 % 0.0 mm 0.0 W/m2 CLR
20:22 8.9 °C 7.2 °C 1017.5 hPa Calm     89 % 0.0 mm 0.0 W/m2 CLR
20:27 8.8 °C 7.1 °C 1017.5 hPa Calm     89 % 0.0 mm 0.0 W/m2 CLR
20:32 8.6 °C 6.9 °C 1017.5 hPa Calm     89 % 0.0 mm 0.0 W/m2 CLR
20:37 8.5 °C 6.8 °C 1017.8 hPa Calm     89 % 0.0 mm 0.0 W/m2 CLR
20:42 8.4 °C 6.9 °C 1017.8 hPa Calm     90 % 0.0 mm 0.0 W/m2 CLR
20:47 8.4 °C 6.8 °C 1017.8 hPa Calm     90 % 0.0 mm 0.0 W/m2 CLR
20:52 8.3 °C 6.8 °C 1017.8 hPa Calm     90 % 0.0 mm 0.0 W/m2 CLR
20:57 8.3 °C 6.8 °C 1017.8 hPa Calm     90 % 0.0 mm 0.0 W/m2 CLR
21:02 8.2 °C 6.7 °C 1017.8 hPa Calm     90 % 0.0 mm 0.0 W/m2 CLR
21:07 8.1 °C 6.6 °C 1017.8 hPa Calm     90 % 0.0 mm 0.0 W/m2 CLR
21:12 7.9 °C 6.4 °C 1017.8 hPa Calm     90 % 0.0 mm 0.0 W/m2 CLR
21:17 7.8 °C 6.2 °C 1018.2 hPa Calm     90 % 0.0 mm 0.0 W/m2 CLR
21:22 7.6 °C 6.1 °C 1018.2 hPa Calm     90 % 0.0 mm 0.0 W/m2 CLR
21:27 7.6 °C 6.2 °C 1018.2 hPa Calm     91 % 0.0 mm 0.0 W/m2 CLR
21:32 7.4 °C 6.1 °C 1018.2 hPa Calm     91 % 0.0 mm 0.0 W/m2 CLR
21:37 7.4 °C 6.0 °C 1018.2 hPa Calm     91 % 0.0 mm 0.0 W/m2 CLR
21:42 7.3 °C 5.9 °C 1018.2 hPa Calm     91 % 0.0 mm 0.0 W/m2 CLR
21:47 7.3 °C 5.9 °C 1018.2 hPa Calm     91 % 0.0 mm 0.0 W/m2 CLR
21:52 7.1 °C 5.7 °C 1018.2 hPa Calm     91 % 0.0 mm 0.0 W/m2 CLR
21:57 6.9 °C 5.5 °C 1018.2 hPa Calm     91 % 0.0 mm 0.0 W/m2 CLR
22:02 6.8 °C 5.4 °C 1018.2 hPa Calm     91 % 0.0 mm 0.0 W/m2 CLR
22:07 6.8 °C 5.4 °C 1018.2 hPa Calm     91 % 0.0 mm 0.0 W/m2 CLR
22:12 6.7 °C 5.3 °C 1018.2 hPa Calm     91 % 0.0 mm 0.0 W/m2 CLR
22:17 6.7 °C 5.5 °C 1018.2 hPa Calm     92 % 0.0 mm 0.0 W/m2 CLR
22:22 6.7 °C 5.5 °C 1018.2 hPa Calm     92 % 0.0 mm 0.0 W/m2 CLR
22:27 6.7 °C 5.4 °C 1018.2 hPa Calm     92 % 0.0 mm 0.0 W/m2 CLR
22:32 6.6 °C 5.3 °C 1018.2 hPa Calm     92 % 0.0 mm 0.0 W/m2 CLR
22:37 6.4 °C 5.1 °C 1018.2 hPa Calm     91 % 0.0 mm 0.0 W/m2 CLR
22:42 6.3 °C 5.1 °C 1018.2 hPa Calm     92 % 0.0 mm 0.0 W/m2 CLR
22:47 6.2 °C 5.0 °C 1018.2 hPa Calm     92 % 0.0 mm 0.0 W/m2 CLR
22:53 6.1 °C 4.9 °C 1018.2 hPa Calm     92 % 0.0 mm 0.0 W/m2 CLR
22:58 6.1 °C 4.8 °C 1018.2 hPa Calm     92 % 0.0 mm 0.0 W/m2 CLR
23:03 6.1 °C 4.9 °C 1018.2 hPa Calm     92 % 0.0 mm 0.0 W/m2 CLR
23:08 6.2 °C 5.0 °C 1018.2 hPa Calm     92 % 0.0 mm 0.0 W/m2 CLR
23:13 6.2 °C 4.9 °C 1018.2 hPa Calm     92 % 0.0 mm 0.0 W/m2 CLR
23:18 5.9 °C 4.7 °C 1018.2 hPa Calm     92 % 0.0 mm 0.0 W/m2 CLR
23:23 5.6 °C 4.4 °C 1018.2 hPa Calm     92 % 0.0 mm 0.0 W/m2 CLR
23:28 5.5 °C 4.3 °C 1018.5 hPa Calm     92 % 0.0 mm 0.0 W/m2 CLR
23:38 5.3 °C 4.1 °C 1018.5 hPa Calm     92 % 0.0 mm 0.0 W/m2 CLR
23:43 5.3 °C 4.1 °C 1018.5 hPa Calm     92 % 0.0 mm 0.0 W/m2 CLR
23:48 5.3 °C 4.3 °C 1018.5 hPa Calm     93 % 0.0 mm 0.0 W/m2 CLR
23:53 5.3 °C 4.1 °C 1018.5 hPa Calm     92 % 0.0 mm 0.0 W/m2 CLR
23:58 5.3 °C 4.1 °C 1018.5 hPa Calm     92 % 0.0 mm 0.0 W/m2 CLR
Lo Temps de Massalio
Compliments of Weather Underground - 1.25 mb